Weather at Heydar Aliyev International Airport

Public forecast

Using degrees Celsius for public forecast. Weather courtesy of forecast.io.

Current aviation weather report (METAR) for Heydar Aliyev International Airport

2024/06/22 12:00 (retrieved 39 minutes ago)

UBBB 221200Z 05006KT 9999 FEW049CB SCT049 29/14 Q1009 NOSIG

Aviation forecast (TAF) for Heydar Aliyev International Airport

2024/06/22 12:53 (retrieved 0 seconds ago)

TAF UBBB 221046Z 2212/2312 04010KT 9999 SCT030 TX30/2212Z TN20/2303Z TEMPO 2212/2216 08010KT FEW050CB BECMG 2216/2218 VRB04KT TEMPO 2218/2304 12006KT SCT010 BECMG 2304/2306 16012KT